Impacts TAF Board
For situational awareness. Not to be used for flight planning purposes.
IDs:

KUTS - Huntsville Muni, TX, US

Issued at 0520 UTC 19 Aug 2019
Updated at 0534 UTC 19 Aug 2019
Potential Impact None Slight Moderate High
Time0453Z 19/06Z 19/07Z 19/08Z 19/09Z 19/10Z 19/11Z 19/12Z 19/13Z 19/14Z 19/15Z 19/16Z 19/17Z 19/18Z>>
Type OBS PRVL PRVL PRVL PRVL PRVL PRVL PRVL PRVL PRVL PRVL PRVL PRVL PRVL
VIS 10 >6 >6 >6 >6 >6 >6 >6 >6 >6 >6 >6 >6 >6
CIG -- -- -- -- -- -- -- -- -- -- -- -- -- --
Cover CLR SKC SKC SKC SKC SKC SKC SCT SCT SCT SCT SCT SCT SCT
FltCat VFR VFR VFR VFR VFR VFR VFR VFR VFR VFR VFR VFR VFR VFR
WX -- -- -- -- -- -- -- -- -- -- -- -- -- --
WDir 170 160 160 160 160 160 160 190 190 190 190 190 180 180
WSpd 5 5 5 5 5 5 5 6 6 6 6 6 6 6
WGst -- -- -- -- -- -- -- -- -- -- -- -- -- --
Raw TAF
KUTS 190520Z 1906/2006 16005KT P6SM SKC
  FM191200 19006KT P6SM SCT020
  FM191700 18006KT P6SM SCT045
  FM192100 17006KT P6SM VCSH SCT060
  FM200200 17006KT P6SM SKC


Raw METAR
KUTS 190453Z AUTO 17005KT 10SM CLR 29/23 A2994 RMK AO2 SLP132 T02940233
KUTS 190353Z AUTO VRB04KT 10SM CLR 31/23 A2994 RMK AO2 SLP130 T03060233
KUTS 190253Z AUTO 16005KT 10SM CLR 32/23 A2990 RMK AO2 SLP119 T03170233 53011

METAR Board
Radar Display
Forecast Discussion
For situational awareness. Not to be used for flight planning purposes.